sensor_id;sensor_type;location;lat;lon;timestamp;pressure;altitude;pressure_sealevel;temperature;humidity
45275;BME280;31019;43.780;25.948;2023-04-01T00:01:03;100171.44;;;7.00;100.00
45275;BME280;31019;43.780;25.948;2023-04-01T00:03:31;100166.81;;;7.08;100.00
45275;BME280;31019;43.780;25.948;2023-04-01T00:05:59;100157.44;;;7.06;100.00
45275;BME280;31019;43.780;25.948;2023-04-01T00:08:28;100161.41;;;6.88;100.00
45275;BME280;31019;43.780;25.948;2023-04-01T00:10:55;100151.56;;;6.69;100.00
45275;BME280;31019;43.780;25.948;2023-04-01T00:13:23;100148.56;;;6.72;100.00
45275;BME280;31019;43.780;25.948;2023-04-01T00:15:50;100144.13;;;6.86;100.00
45275;BME280;31019;43.780;25.948;2023-04-01T00:18:17;100139.97;;;6.63;100.00
45275;BME280;31019;43.780;25.948;2023-04-01T00:20:45;100140.28;;;6.82;100.00
45275;BME280;31019;43.780;25.948;2023-04-01T00:23:12;100141.50;;;6.23;100.00
45275;BME280;31019;43.780;25.948;2023-04-01T00:25:40;100143.84;;;6.68;100.00
45275;BME280;31019;43.780;25.948;2023-04-01T00:28:07;100128.88;;;6.75;100.00
45275;BME280;31019;43.780;25.948;2023-04-01T00:30:35;100127.13;;;6.54;100.00
45275;BME280;31019;43.780;25.948;2023-04-01T00:33:02;100119.50;;;6.37;100.00
45275;BME280;31019;43.780;25.948;2023-04-01T00:35:29;100116.31;;;6.49;100.00
45275;BME280;31019;43.780;25.948;2023-04-01T00:37:57;100117.56;;;6.53;100.00
45275;BME280;31019;43.780;25.948;2023-04-01T00:40:27;100117.66;;;6.66;100.00
45275;BME280;31019;43.780;25.948;2023-04-01T00:42:56;100114.56;;;6.62;100.00
45275;BME280;31019;43.780;25.948;2023-04-01T00:45:30;100112.84;;;6.41;100.00
45275;BME280;31019;43.780;25.948;2023-04-01T00:47:58;100097.88;;;6.49;100.00
45275;BME280;31019;43.780;25.948;2023-04-01T00:50:26;100103.53;;;6.46;100.00
45275;BME280;31019;43.780;25.948;2023-04-01T00:52:55;100102.41;;;6.27;100.00
45275;BME280;31019;43.780;25.948;2023-04-01T00:55:23;100098.59;;;6.36;100.00
45275;BME280;31019;43.780;25.948;2023-04-01T00:57:51;100095.75;;;6.37;100.00
45275;BME280;31019;43.780;25.948;2023-04-01T01:00:23;100086.13;;;6.23;100.00
45275;BME280;31019;43.780;25.948;2023-04-01T01:02:51;100088.25;;;6.06;100.00
45275;BME280;31019;43.780;25.948;2023-04-01T01:05:23;100089.78;;;6.22;100.00
45275;BME280;31019;43.780;25.948;2023-04-01T01:08:00;100085.44;;;6.42;100.00
45275;BME280;31019;43.780;25.948;2023-04-01T01:10:31;100077.59;;;6.56;100.00
45275;BME280;31019;43.780;25.948;2023-04-01T01:13:05;100067.13;;;6.34;100.00
45275;BME280;31019;43.780;25.948;2023-04-01T01:15:41;100069.38;;;6.03;100.00
45275;BME280;31019;43.780;25.948;2023-04-01T01:18:18;100066.91;;;6.01;100.00
45275;BME280;31019;43.780;25.948;2023-04-01T01:21:19;100069.59;;;6.08;100.00
45275;BME280;31019;43.780;25.948;2023-04-01T01:24:17;100062.13;;;6.11;100.00
45275;BME280;31019;43.780;25.948;2023-04-01T01:26:58;100055.38;;;6.02;100.00
45275;BME280;31019;43.780;25.948;2023-04-01T01:29:49;100060.25;;;6.05;100.00
45275;BME280;31019;43.780;25.948;2023-04-01T01:32:35;100056.84;;;6.11;100.00
45275;BME280;31019;43.780;25.948;2023-04-01T01:35:22;100058.50;;;6.19;100.00
45275;BME280;31019;43.780;25.948;2023-04-01T01:37:54;100057.78;;;6.32;100.00
45275;BME280;31019;43.780;25.948;2023-04-01T01:40:24;100047.53;;;5.87;100.00
45275;BME280;31019;43.780;25.948;2023-04-01T01:42:57;100044.66;;;5.61;100.00
45275;BME280;31019;43.780;25.948;2023-04-01T01:45:27;100030.44;;;5.55;100.00
45275;BME280;31019;43.780;25.948;2023-04-01T01:47:57;100033.63;;;5.50;100.00
45275;BME280;31019;43.780;25.948;2023-04-01T01:50:27;100035.50;;;5.35;100.00
45275;BME280;31019;43.780;25.948;2023-04-01T01:53:02;100022.53;;;5.55;100.00
45275;BME280;31019;43.780;25.948;2023-04-01T01:55:31;100032.63;;;5.51;100.00
45275;BME280;31019;43.780;25.948;2023-04-01T01:57:59;100024.03;;;5.43;100.00
45275;BME280;31019;43.780;25.948;2023-04-01T02:00:28;100017.53;;;5.60;100.00
45275;BME280;31019;43.780;25.948;2023-04-01T02:02:56;100021.75;;;5.33;100.00
45275;BME280;31019;43.780;25.948;2023-04-01T02:05:25;100019.00;;;5.69;100.00
45275;BME280;31019;43.780;25.948;2023-04-01T02:08:01;100012.16;;;5.54;100.00
45275;BME280;31019;43.780;25.948;2023-04-01T02:10:31;100006.00;;;5.40;100.00
45275;BME280;31019;43.780;25.948;2023-04-01T02:13:05;100002.31;;;5.62;100.00
45275;BME280;31019;43.780;25.948;2023-04-01T02:15:40;100006.63;;;5.42;100.00
45275;BME280;31019;43.780;25.948;2023-04-01T02:18:09;100003.69;;;5.30;100.00
45275;BME280;31019;43.780;25.948;2023-04-01T02:20:38;99997.91;;;5.20;100.00
45275;BME280;31019;43.780;25.948;2023-04-01T02:23:09;100001.09;;;5.15;100.00
45275;BME280;31019;43.780;25.948;2023-04-01T02:25:37;99991.94;;;5.11;100.00
45275;BME280;31019;43.780;25.948;2023-04-01T02:28:07;99991.13;;;5.32;100.00
45275;BME280;31019;43.780;25.948;2023-04-01T02:30:37;99982.25;;;5.33;100.00
45275;BME280;31019;43.780;25.948;2023-04-01T02:33:06;99989.22;;;5.69;100.00
45275;BME280;31019;43.780;25.948;2023-04-01T02:35:34;99977.59;;;5.91;100.00
45275;BME280;31019;43.780;25.948;2023-04-01T02:38:02;99973.94;;;5.92;100.00
45275;BME280;31019;43.780;25.948;2023-04-01T02:40:41;99977.78;;;5.90;100.00
45275;BME280;31019;43.780;25.948;2023-04-01T02:43:08;99968.28;;;5.61;100.00
45275;BME280;31019;43.780;25.948;2023-04-01T02:45:35;99959.91;;;5.85;100.00
45275;BME280;31019;43.780;25.948;2023-04-01T02:48:01;99957.59;;;5.97;100.00
45275;BME280;31019;43.780;25.948;2023-04-01T02:50:28;99952.44;;;5.89;100.00
45275;BME280;31019;43.780;25.948;2023-04-01T02:52:55;99956.91;;;5.88;100.00
45275;BME280;31019;43.780;25.948;2023-04-01T02:55:22;99950.50;;;5.97;100.00
45275;BME280;31019;43.780;25.948;2023-04-01T02:57:50;99949.97;;;6.09;100.00
45275;BME280;31019;43.780;25.948;2023-04-01T03:00:17;99941.34;;;5.93;100.00
45275;BME280;31019;43.780;25.948;2023-04-01T03:02:44;99935.25;;;5.93;100.00
45275;BME280;31019;43.780;25.948;2023-04-01T03:05:10;99959.41;;;5.96;100.00
45275;BME280;31019;43.780;25.948;2023-04-01T03:07:38;99943.47;;;6.11;100.00
45275;BME280;31019;43.780;25.948;2023-04-01T03:10:06;99937.94;;;5.71;100.00
45275;BME280;31019;43.780;25.948;2023-04-01T03:12:32;99949.13;;;5.80;100.00
45275;BME280;31019;43.780;25.948;2023-04-01T03:15:01;99944.34;;;5.62;100.00
45275;BME280;31019;43.780;25.948;2023-04-01T03:17:27;99938.03;;;5.57;100.00
45275;BME280;31019;43.780;25.948;2023-04-01T03:19:54;99934.84;;;5.61;100.00
45275;BME280;31019;43.780;25.948;2023-04-01T03:22:21;99936.00;;;5.87;100.00
45275;BME280;31019;43.780;25.948;2023-04-01T03:24:48;99936.94;;;6.01;100.00
45275;BME280;31019;43.780;25.948;2023-04-01T03:27:15;99941.56;;;5.99;100.00
45275;BME280;31019;43.780;25.948;2023-04-01T03:29:42;99940.00;;;6.11;100.00
45275;BME280;31019;43.780;25.948;2023-04-01T03:32:10;99939.03;;;5.56;100.00
45275;BME280;31019;43.780;25.948;2023-04-01T03:34:36;99937.03;;;5.58;100.00
45275;BME280;31019;43.780;25.948;2023-04-01T03:37:03;99934.44;;;5.64;100.00
45275;BME280;31019;43.780;25.948;2023-04-01T03:39:30;99932.91;;;5.77;100.00
45275;BME280;31019;43.780;25.948;2023-04-01T03:41:57;99929.81;;;5.66;100.00
45275;BME280;31019;43.780;25.948;2023-04-01T03:44:24;99933.63;;;5.64;100.00
45275;BME280;31019;43.780;25.948;2023-04-01T03:46:51;99932.88;;;5.70;100.00
45275;BME280;31019;43.780;25.948;2023-04-01T03:49:19;99938.63;;;5.87;100.00
45275;BME280;31019;43.780;25.948;2023-04-01T03:51:46;99926.69;;;5.84;100.00
45275;BME280;31019;43.780;25.948;2023-04-01T03:54:12;99942.25;;;6.14;100.00
45275;BME280;31019;43.780;25.948;2023-04-01T03:56:39;99941.66;;;6.12;100.00
45275;BME280;31019;43.780;25.948;2023-04-01T03:59:07;99948.38;;;6.21;100.00
45275;BME280;31019;43.780;25.948;2023-04-01T04:01:34;99935.63;;;6.25;100.00
45275;BME280;31019;43.780;25.948;2023-04-01T04:04:01;99930.31;;;6.11;100.00
45275;BME280;31019;43.780;25.948;2023-04-01T04:06:30;99931.78;;;6.27;100.00
45275;BME280;31019;43.780;25.948;2023-04-01T04:08:57;99927.84;;;6.64;100.00
45275;BME280;31019;43.780;25.948;2023-04-01T04:11:24;99921.09;;;6.49;100.00
45275;BME280;31019;43.780;25.948;2023-04-01T04:13:51;99916.41;;;6.44;100.00
45275;BME280;31019;43.780;25.948;2023-04-01T04:16:18;99913.19;;;6.49;100.00
45275;BME280;31019;43.780;25.948;2023-04-01T04:18:45;99909.34;;;6.51;100.00
45275;BME280;31019;43.780;25.948;2023-04-01T04:21:12;99910.78;;;6.67;100.00
45275;BME280;31019;43.780;25.948;2023-04-01T04:23:41;99897.44;;;6.88;100.00
45275;BME280;31019;43.780;25.948;2023-04-01T04:26:10;99897.47;;;7.08;100.00
45275;BME280;31019;43.780;25.948;2023-04-01T04:28:38;99898.25;;;7.42;100.00
45275;BME280;31019;43.780;25.948;2023-04-01T04:31:05;99903.53;;;7.49;100.00
45275;BME280;31019;43.780;25.948;2023-04-01T04:33:33;99916.72;;;7.55;100.00
45275;BME280;31019;43.780;25.948;2023-04-01T04:36:00;99910.22;;;7.38;100.00
45275;BME280;31019;43.780;25.948;2023-04-01T04:38:27;99919.97;;;7.38;100.00
45275;BME280;31019;43.780;25.948;2023-04-01T04:40:56;99918.16;;;7.51;100.00
45275;BME280;31019;43.780;25.948;2023-04-01T04:43:23;99910.03;;;7.46;100.00
45275;BME280;31019;43.780;25.948;2023-04-01T04:45:50;99906.56;;;7.46;100.00
45275;BME280;31019;43.780;25.948;2023-04-01T04:48:17;99913.47;;;7.60;100.00
45275;BME280;31019;43.780;25.948;2023-04-01T04:50:46;99907.16;;;7.68;100.00
45275;BME280;31019;43.780;25.948;2023-04-01T04:53:14;99911.78;;;7.86;100.00
45275;BME280;31019;43.780;25.948;2023-04-01T04:55:45;99906.09;;;7.89;100.00
45275;BME280;31019;43.780;25.948;2023-04-01T04:58:13;99908.28;;;7.98;100.00
45275;BME280;31019;43.780;25.948;2023-04-01T05:00:41;99911.09;;;8.10;100.00
45275;BME280;31019;43.780;25.948;2023-04-01T05:03:08;99901.13;;;8.12;100.00
45275;BME280;31019;43.780;25.948;2023-04-01T05:05:35;99903.72;;;8.25;100.00
45275;BME280;31019;43.780;25.948;2023-04-01T05:08:02;99904.94;;;8.30;100.00
45275;BME280;31019;43.780;25.948;2023-04-01T05:10:29;99908.13;;;8.45;100.00
45275;BME280;31019;43.780;25.948;2023-04-01T05:12:57;99906.44;;;8.57;100.00
45275;BME280;31019;43.780;25.948;2023-04-01T05:15:25;99904.09;;;8.74;100.00
45275;BME280;31019;43.780;25.948;2023-04-01T05:17:52;99896.50;;;8.84;100.00
45275;BME280;31019;43.780;25.948;2023-04-01T05:20:18;99895.41;;;8.92;100.00
45275;BME280;31019;43.780;25.948;2023-04-01T05:22:45;99901.44;;;9.06;100.00
45275;BME280;31019;43.780;25.948;2023-04-01T05:25:12;99897.38;;;9.03;100.00
45275;BME280;31019;43.780;25.948;2023-04-01T05:27:39;99891.53;;;9.20;100.00
45275;BME280;31019;43.780;25.948;2023-04-01T05:30:06;99894.72;;;9.28;100.00
45275;BME280;31019;43.780;25.948;2023-04-01T05:32:35;99896.19;;;9.24;100.00
45275;BME280;31019;43.780;25.948;2023-04-01T05:35:01;99892.25;;;9.33;100.00
45275;BME280;31019;43.780;25.948;2023-04-01T05:37:28;99888.13;;;9.37;100.00
45275;BME280;31019;43.780;25.948;2023-04-01T05:39:55;99889.31;;;9.42;100.00
45275;BME280;31019;43.780;25.948;2023-04-01T05:42:24;99886.53;;;9.55;100.00
45275;BME280;31019;43.780;25.948;2023-04-01T05:44:51;99881.31;;;9.67;100.00
45275;BME280;31019;43.780;25.948;2023-04-01T05:47:17;99879.03;;;9.70;100.00
45275;BME280;31019;43.780;25.948;2023-04-01T05:49:46;99878.22;;;9.88;100.00
45275;BME280;31019;43.780;25.948;2023-04-01T05:52:12;99873.53;;;9.90;100.00
45275;BME280;31019;43.780;25.948;2023-04-01T05:54:39;99865.25;;;9.98;100.00
45275;BME280;31019;43.780;25.948;2023-04-01T05:57:06;99867.50;;;10.13;100.00
45275;BME280;31019;43.780;25.948;2023-04-01T05:59:33;99858.66;;;10.19;100.00
45275;BME280;31019;43.780;25.948;2023-04-01T06:02:00;99866.25;;;10.34;100.00
45275;BME280;31019;43.780;25.948;2023-04-01T06:04:33;99858.78;;;10.43;100.00
45275;BME280;31019;43.780;25.948;2023-04-01T06:07:08;99861.75;;;10.65;100.00
45275;BME280;31019;43.780;25.948;2023-04-01T06:09:37;99858.66;;;10.80;100.00
45275;BME280;31019;43.780;25.948;2023-04-01T06:12:28;99862.75;;;11.06;100.00
45275;BME280;31019;43.780;25.948;2023-04-01T06:15:11;99850.97;;;11.13;100.00
45275;BME280;31019;43.780;25.948;2023-04-01T06:17:52;99855.72;;;11.23;100.00
45275;BME280;31019;43.780;25.948;2023-04-01T06:20:29;99855.13;;;11.33;100.00
45275;BME280;31019;43.780;25.948;2023-04-01T06:23:15;99844.03;;;11.36;100.00
45275;BME280;31019;43.780;25.948;2023-04-01T06:25:53;99849.34;;;11.36;100.00
45275;BME280;31019;43.780;25.948;2023-04-01T06:28:53;99841.38;;;11.48;100.00
45275;BME280;31019;43.780;25.948;2023-04-01T06:31:39;99863.47;;;11.48;100.00
45275;BME280;31019;43.780;25.948;2023-04-01T06:34:27;99848.97;;;11.56;100.00
45275;BME280;31019;43.780;25.948;2023-04-01T06:37:10;99854.56;;;11.54;100.00
45275;BME280;31019;43.780;25.948;2023-04-01T06:40:00;99841.13;;;11.61;100.00
45275;BME280;31019;43.780;25.948;2023-04-01T06:45:30;99855.59;;;11.65;100.00
45275;BME280;31019;43.780;25.948;2023-04-01T06:48:11;99844.94;;;11.65;100.00
45275;BME280;31019;43.780;25.948;2023-04-01T06:50:47;99854.66;;;11.71;100.00
45275;BME280;31019;43.780;25.948;2023-04-01T06:53:21;99849.09;;;11.73;100.00
45275;BME280;31019;43.780;25.948;2023-04-01T06:55:53;99842.16;;;11.72;100.00
45275;BME280;31019;43.780;25.948;2023-04-01T06:58:27;99845.47;;;11.79;100.00
45275;BME280;31019;43.780;25.948;2023-04-01T07:00:58;99842.25;;;11.77;100.00
45275;BME280;31019;43.780;25.948;2023-04-01T07:03:31;99844.81;;;11.72;100.00
45275;BME280;31019;43.780;25.948;2023-04-01T07:06:02;99840.63;;;11.76;100.00
45275;BME280;31019;43.780;25.948;2023-04-01T07:08:31;99848.28;;;11.72;100.00
45275;BME280;31019;43.780;25.948;2023-04-01T07:11:04;99851.84;;;11.78;100.00
45275;BME280;31019;43.780;25.948;2023-04-01T07:13:34;99862.97;;;11.86;100.00
45275;BME280;31019;43.780;25.948;2023-04-01T07:16:08;99848.88;;;11.74;100.00
45275;BME280;31019;43.780;25.948;2023-04-01T07:18:40;99847.09;;;11.80;100.00
45275;BME280;31019;43.780;25.948;2023-04-01T07:21:12;99852.34;;;11.86;100.00
45275;BME280;31019;43.780;25.948;2023-04-01T07:23:42;99856.09;;;12.02;100.00
45275;BME280;31019;43.780;25.948;2023-04-01T07:26:17;99859.13;;;11.94;100.00
45275;BME280;31019;43.780;25.948;2023-04-01T07:28:46;99864.53;;;12.11;100.00
45275;BME280;31019;43.780;25.948;2023-04-01T07:31:20;99863.19;;;11.85;100.00
45275;BME280;31019;43.780;25.948;2023-04-01T07:33:59;99863.63;;;11.82;100.00
45275;BME280;31019;43.780;25.948;2023-04-01T07:36:33;99860.41;;;11.91;100.00
45275;BME280;31019;43.780;25.948;2023-04-01T07:39:12;99859.59;;;11.79;100.00
45275;BME280;31019;43.780;25.948;2023-04-01T07:41:51;99856.06;;;12.14;100.00
45275;BME280;31019;43.780;25.948;2023-04-01T07:44:25;99847.69;;;12.51;100.00
45275;BME280;31019;43.780;25.948;2023-04-01T07:47:10;99840.91;;;12.14;100.00
45275;BME280;31019;43.780;25.948;2023-04-01T07:49:53;99832.63;;;11.99;100.00
45275;BME280;31019;43.780;25.948;2023-04-01T07:52:30;99823.06;;;11.86;100.00
45275;BME280;31019;43.780;25.948;2023-04-01T07:55:04;99814.88;;;12.33;100.00
45275;BME280;31019;43.780;25.948;2023-04-01T07:57:39;99838.97;;;13.40;100.00
45275;BME280;31019;43.780;25.948;2023-04-01T08:00:13;99848.16;;;13.66;100.00
45275;BME280;31019;43.780;25.948;2023-04-01T08:05:41;99835.88;;;13.65;100.00
45275;BME280;31019;43.780;25.948;2023-04-01T08:08:18;99831.66;;;12.79;100.00
45275;BME280;31019;43.780;25.948;2023-04-01T08:10:49;99817.66;;;12.38;100.00
45275;BME280;31019;43.780;25.948;2023-04-01T08:13:30;99824.28;;;13.37;100.00
45275;BME280;31019;43.780;25.948;2023-04-01T08:16:08;99838.84;;;13.68;100.00
45275;BME280;31019;43.780;25.948;2023-04-01T08:18:41;99842.47;;;14.28;100.00
45275;BME280;31019;43.780;25.948;2023-04-01T08:21:14;99827.22;;;14.02;100.00
45275;BME280;31019;43.780;25.948;2023-04-01T08:23:44;99807.25;;;12.54;100.00
45275;BME280;31019;43.780;25.948;2023-04-01T08:26:16;99803.31;;;12.90;100.00
45275;BME280;31019;43.780;25.948;2023-04-01T08:28:51;99802.34;;;12.63;100.00
45275;BME280;31019;43.780;25.948;2023-04-01T08:31:26;99799.50;;;12.35;100.00
45275;BME280;31019;43.780;25.948;2023-04-01T08:33:57;99824.97;;;14.15;100.00
45275;BME280;31019;43.780;25.948;2023-04-01T08:36:27;99829.28;;;13.94;100.00
45275;BME280;31019;43.780;25.948;2023-04-01T08:38:57;99822.44;;;13.21;100.00
45275;BME280;31019;43.780;25.948;2023-04-01T08:41:37;99822.84;;;12.79;100.00
45275;BME280;31019;43.780;25.948;2023-04-01T08:44:29;99809.53;;;12.79;100.00
45275;BME280;31019;43.780;25.948;2023-04-01T08:47:29;99805.97;;;12.73;100.00
45275;BME280;31019;43.780;25.948;2023-04-01T08:50:23;99804.91;;;12.41;100.00
45275;BME280;31019;43.780;25.948;2023-04-01T08:53:00;99803.09;;;12.29;100.00
45275;BME280;31019;43.780;25.948;2023-04-01T08:55:40;99798.47;;;12.08;100.00
45275;BME280;31019;43.780;25.948;2023-04-01T09:01:37;99789.41;;;11.80;100.00
45275;BME280;31019;43.780;25.948;2023-04-01T09:04:25;99794.72;;;11.80;100.00
45275;BME280;31019;43.780;25.948;2023-04-01T09:07:07;99797.53;;;12.31;100.00
45275;BME280;31019;43.780;25.948;2023-04-01T09:10:08;99802.34;;;12.17;100.00
45275;BME280;31019;43.780;25.948;2023-04-01T09:12:59;99797.47;;;12.43;100.00
45275;BME280;31019;43.780;25.948;2023-04-01T09:15:50;99788.50;;;12.32;100.00
45275;BME280;31019;43.780;25.948;2023-04-01T09:18:47;99797.84;;;12.80;100.00
45275;BME280;31019;43.780;25.948;2023-04-01T09:24:41;99789.47;;;12.26;100.00
45275;BME280;31019;43.780;25.948;2023-04-01T09:27:17;99792.94;;;11.98;100.00
45275;BME280;31019;43.780;25.948;2023-04-01T09:35:48;99799.28;;;12.88;100.00
45275;BME280;31019;43.780;25.948;2023-04-01T09:38:21;99787.03;;;12.24;100.00
45275;BME280;31019;43.780;25.948;2023-04-01T09:40:55;99779.72;;;12.82;100.00
45275;BME280;31019;43.780;25.948;2023-04-01T09:43:26;99773.34;;;12.32;100.00
45275;BME280;31019;43.780;25.948;2023-04-01T09:46:14;99746.84;;;13.10;100.00
45275;BME280;31019;43.780;25.948;2023-04-01T09:49:04;99761.03;;;13.55;100.00
45275;BME280;31019;43.780;25.948;2023-04-01T09:51:45;99752.59;;;12.51;100.00
45275;BME280;31019;43.780;25.948;2023-04-01T09:54:27;99754.53;;;12.39;100.00
45275;BME280;31019;43.780;25.948;2023-04-01T09:57:22;99757.97;;;13.90;100.00
45275;BME280;31019;43.780;25.948;2023-04-01T10:03:58;99766.91;;;13.79;100.00
45275;BME280;31019;43.780;25.948;2023-04-01T10:12:45;99760.25;;;13.81;100.00
45275;BME280;31019;43.780;25.948;2023-04-01T10:18:40;99762.53;;;13.94;100.00
45275;BME280;31019;43.780;25.948;2023-04-01T10:21:37;99753.72;;;14.21;100.00
45275;BME280;31019;43.780;25.948;2023-04-01T10:27:30;99751.78;;;14.71;100.00
45275;BME280;31019;43.780;25.948;2023-04-01T10:33:32;99742.84;;;15.50;100.00
45275;BME280;31019;43.780;25.948;2023-04-01T10:36:28;99739.03;;;14.83;100.00
45275;BME280;31019;43.780;25.948;2023-04-01T10:45:53;99732.41;;;14.53;100.00
45275;BME280;31019;43.780;25.948;2023-04-01T10:51:56;99738.97;;;14.40;100.00
45275;BME280;31019;43.780;25.948;2023-04-01T10:54:46;99727.03;;;14.21;100.00
45275;BME280;31019;43.780;25.948;2023-04-01T10:57:25;99717.66;;;14.83;100.00
45275;BME280;31019;43.780;25.948;2023-04-01T11:12:47;99699.03;;;14.61;100.00
45275;BME280;31019;43.780;25.948;2023-04-01T11:18:50;99708.84;;;14.18;100.00
45275;BME280;31019;43.780;25.948;2023-04-01T11:21:56;99699.63;;;14.36;100.00
45275;BME280;31019;43.780;25.948;2023-04-01T11:24:40;99700.66;;;14.30;100.00
45275;BME280;31019;43.780;25.948;2023-04-01T11:27:24;99681.63;;;14.53;100.00
45275;BME280;31019;43.780;25.948;2023-04-01T11:33:00;99677.72;;;14.34;100.00
45275;BME280;31019;43.780;25.948;2023-04-01T11:35:56;99669.50;;;14.46;100.00
45275;BME280;31019;43.780;25.948;2023-04-01T11:38:34;99687.88;;;14.37;100.00
45275;BME280;31019;43.780;25.948;2023-04-01T11:41:18;99686.16;;;14.20;100.00
45275;BME280;31019;43.780;25.948;2023-04-01T11:44:10;99676.03;;;14.23;100.00
45275;BME280;31019;43.780;25.948;2023-04-01T11:46:48;99662.19;;;14.31;100.00
45275;BME280;31019;43.780;25.948;2023-04-01T11:49:27;99663.31;;;14.03;100.00
45275;BME280;31019;43.780;25.948;2023-04-01T11:52:07;99657.22;;;14.07;100.00
45275;BME280;31019;43.780;25.948;2023-04-01T11:54:58;99659.69;;;14.51;100.00
45275;BME280;31019;43.780;25.948;2023-04-01T11:57:43;99654.16;;;14.63;100.00
45275;BME280;31019;43.780;25.948;2023-04-01T12:00:34;99653.34;;;15.10;100.00
45275;BME280;31019;43.780;25.948;2023-04-01T12:03:21;99656.88;;;14.73;100.00
45275;BME280;31019;43.780;25.948;2023-04-01T12:05:58;99660.91;;;14.71;100.00
45275;BME280;31019;43.780;25.948;2023-04-01T12:08:36;99658.81;;;14.46;100.00
45275;BME280;31019;43.780;25.948;2023-04-01T12:11:15;99649.38;;;14.70;100.00
45275;BME280;31019;43.780;25.948;2023-04-01T12:13:49;99640.34;;;14.76;100.00
45275;BME280;31019;43.780;25.948;2023-04-01T12:16:29;99630.00;;;16.14;100.00
45275;BME280;31019;43.780;25.948;2023-04-01T12:19:04;99639.38;;;15.81;100.00
45275;BME280;31019;43.780;25.948;2023-04-01T12:21:38;99629.38;;;16.68;100.00
45275;BME280;31019;43.780;25.948;2023-04-01T12:24:36;99632.97;;;17.18;100.00
45275;BME280;31019;43.780;25.948;2023-04-01T12:27:41;99620.63;;;16.17;100.00
45275;BME280;31019;43.780;25.948;2023-04-01T12:30:32;99629.00;;;15.11;100.00
45275;BME280;31019;43.780;25.948;2023-04-01T12:33:28;99633.22;;;14.92;100.00
45275;BME280;31019;43.780;25.948;2023-04-01T12:36:09;99627.09;;;15.02;100.00
45275;BME280;31019;43.780;25.948;2023-04-01T12:38:44;99637.22;;;14.47;100.00
45275;BME280;31019;43.780;25.948;2023-04-01T12:41:23;99638.44;;;14.29;100.00
45275;BME280;31019;43.780;25.948;2023-04-01T12:44:28;99626.94;;;14.29;100.00
45275;BME280;31019;43.780;25.948;2023-04-01T12:47:24;99631.00;;;14.36;100.00
45275;BME280;31019;43.780;25.948;2023-04-01T12:50:26;99628.00;;;14.28;100.00
45275;BME280;31019;43.780;25.948;2023-04-01T12:53:13;99629.34;;;13.93;100.00
45275;BME280;31019;43.780;25.948;2023-04-01T12:55:44;99629.47;;;14.51;100.00
45275;BME280;31019;43.780;25.948;2023-04-01T13:01:48;99635.16;;;14.54;100.00
45275;BME280;31019;43.780;25.948;2023-04-01T13:04:56;99640.88;;;14.04;100.00
45275;BME280;31019;43.780;25.948;2023-04-01T13:07:47;99639.75;;;13.67;100.00
45275;BME280;31019;43.780;25.948;2023-04-01T13:10:30;99651.91;;;13.53;100.00
45275;BME280;31019;43.780;25.948;2023-04-01T13:13:28;99644.16;;;13.51;100.00
45275;BME280;31019;43.780;25.948;2023-04-01T13:16:06;99646.31;;;13.55;100.00
45275;BME280;31019;43.780;25.948;2023-04-01T13:18:52;99643.25;;;13.41;100.00
45275;BME280;31019;43.780;25.948;2023-04-01T13:21:29;99637.22;;;13.50;100.00
45275;BME280;31019;43.780;25.948;2023-04-01T13:24:05;99644.50;;;13.60;100.00
45275;BME280;31019;43.780;25.948;2023-04-01T13:26:40;99632.88;;;13.44;100.00
45275;BME280;31019;43.780;25.948;2023-04-01T13:29:15;99640.69;;;13.51;100.00
45275;BME280;31019;43.780;25.948;2023-04-01T13:31:52;99645.66;;;13.42;100.00
45275;BME280;31019;43.780;25.948;2023-04-01T13:34:37;99639.59;;;13.47;100.00
45275;BME280;31019;43.780;25.948;2023-04-01T13:37:21;99639.16;;;13.60;100.00
45275;BME280;31019;43.780;25.948;2023-04-01T13:40:05;99635.50;;;13.66;100.00
45275;BME280;31019;43.780;25.948;2023-04-01T13:42:45;99626.75;;;13.71;100.00
45275;BME280;31019;43.780;25.948;2023-04-01T13:45:18;99629.19;;;13.78;100.00
45275;BME280;31019;43.780;25.948;2023-04-01T13:51:17;99632.81;;;13.66;100.00
45275;BME280;31019;43.780;25.948;2023-04-01T13:54:02;99620.78;;;13.64;100.00
45275;BME280;31019;43.780;25.948;2023-04-01T13:56:34;99605.38;;;13.98;100.00
45275;BME280;31019;43.780;25.948;2023-04-01T13:59:25;99613.91;;;13.68;100.00
45275;BME280;31019;43.780;25.948;2023-04-01T14:02:07;99619.38;;;13.83;100.00
45275;BME280;31019;43.780;25.948;2023-04-01T14:04:53;99606.34;;;13.60;100.00
45275;BME280;31019;43.780;25.948;2023-04-01T14:07:36;99615.72;;;13.62;100.00
45275;BME280;31019;43.780;25.948;2023-04-01T14:10:17;99603.66;;;13.87;100.00
45275;BME280;31019;43.780;25.948;2023-04-01T14:12:51;99604.91;;;14.11;100.00
45275;BME280;31019;43.780;25.948;2023-04-01T14:15:50;99607.47;;;13.96;100.00
45275;BME280;31019;43.780;25.948;2023-04-01T14:18:30;99606.16;;;13.98;100.00
45275;BME280;31019;43.780;25.948;2023-04-01T14:21:08;99608.53;;;13.95;100.00
45275;BME280;31019;43.780;25.948;2023-04-01T14:27:06;99608.91;;;13.77;100.00
45275;BME280;31019;43.780;25.948;2023-04-01T14:29:40;99590.69;;;13.68;100.00
45275;BME280;31019;43.780;25.948;2023-04-01T14:32:17;99586.09;;;13.64;100.00
45275;BME280;31019;43.780;25.948;2023-04-01T14:34:59;99578.16;;;13.69;100.00
45275;BME280;31019;43.780;25.948;2023-04-01T14:37:59;99572.41;;;13.55;100.00
45275;BME280;31019;43.780;25.948;2023-04-01T14:40:38;99570.91;;;13.64;100.00
45275;BME280;31019;43.780;25.948;2023-04-01T14:43:27;99579.47;;;13.66;100.00